Terminal Aerodrome Forecast
Issued by NWS Pittsburgh, PA

Current Version | Previous Version | Graphics & Text | Print | Product List | Glossary On
Versions: 1 2 3 4 5 6 7 8 9 10 11 12 13 14 15 16 17 18 19 20 21 22 23 24 25 26 27 28 29 30 31
000
FTUS41 KPBZ 272300
TAFPIT
TAF
KPIT 272328Z 2800/2906 32010KT P6SM -SHSN BKN025 OVC040
     FM280500 31005KT P6SM SCT025
     FM281000 27003KT P6SM SKC
     FM290300 VRB03KT P6SM SCT100=

USA.gov is the U.S. government's official web portal to all federal, state and local government web resources and services.